WetterOnline ( http://www.wetteronline.de )

Wetter aktuell Enkenbach-Alsenborn

Aktuelles Wetter: Weinbiet/Pfalz (557m)

6-stündlich | Neueste Meldungen
Ortszeit Temperatur Wetter
So, 18.02. 1:00 -1.6° C bewölkt
Sa, 17.02. 19:00 -1.3° C bedeckt
Sa, 17.02. 13:00 -1.1° C Schneefall
Sa, 17.02. 7:00 -1.2° C Nebel
Sa, 17.02. 1:00 0.6° C leicht bewölkt
Fr, 16.02. 19:00 3.0° C wolkig
Fr, 16.02. 13:00 4.6° C leicht bewölkt
Fr, 16.02. 7:00 2.2° C Nebel
Ortszeit Temperatur Wetter
So, 18.02. 1:30 -2.0° C bewölkt
So, 18.02. 1:20 -2.0° C bewölkt
So, 18.02. 1:10 -2.0° C bewölkt
So, 18.02. 1:00 -1.6° C bewölkt
So, 18.02. 0:40 -1.6° C bedeckt
So, 18.02. 0:30 -1.6° C bedeckt
So, 18.02. 0:00 -1.7° C bewölkt
Sa, 17.02. 23:30 -2.0° C fast wolkenlos
Sa, 17.02. 23:00 -1.9° C leicht bewölkt
Sa, 17.02. 22:30 -1.9° C bewölkt
Ortszeit Relative Feuchte Sichtweite
So, 18.02. 1:00 91% 10 km
Sa, 17.02. 19:00 95% 10 km
Sa, 17.02. 13:00 96% 100 m
Sa, 17.02. 7:00 97% 0.7 km
Sa, 17.02. 1:00 79% 10 km
Fr, 16.02. 19:00 82% 10 km
Fr, 16.02. 13:00 83% 10 km
Fr, 16.02. 7:00 99% 100 m
Ortszeit Relative Feuchte Sichtweite
So, 18.02. 1:30 91% 10 km
So, 18.02. 1:20 91% -
So, 18.02. 1:10 91% -
So, 18.02. 1:00 91% 10 km
So, 18.02. 0:40 91% -
So, 18.02. 0:30 91% 10 km
So, 18.02. 0:00 91% 10 km
Sa, 17.02. 23:30 91% 10 km
Sa, 17.02. 23:00 91% 10 km
Sa, 17.02. 22:30 91% 10 km
Ortszeit Niederschlagsmenge Niederschlagsart
So, 18.02. 1:00 0.0 l/m2 in 6 Std. -
Sa, 17.02. 19:00 7 l/m2 in 12 Std. Schnee
Sa, 17.02. 13:00 4 l/m2 in 6 Std. Schnee
Sa, 17.02. 7:00 0.0 l/m2 in 12 Std. -
Sa, 17.02. 1:00 0.0 l/m2 in 6 Std. -
Fr, 16.02. 19:00 0.1 l/m2 in 12 Std. -
Fr, 16.02. 13:00 0.1 l/m2 in 6 Std. Regen
Fr, 16.02. 7:00 2 l/m2 in 12 Std. Regen
Ortszeit Niederschlagsmenge Niederschlagsart
So, 18.02. 1:30 0.0 l/m2 in 1 Std. -
So, 18.02. 1:20 keine Meldung -
So, 18.02. 1:10 keine Meldung -
So, 18.02. 1:00 0.0 l/m2 in 1 Std. -
So, 18.02. 0:40 keine Meldung -
So, 18.02. 0:30 0.0 l/m2 in 1 Std. -
So, 18.02. 0:00 0.0 l/m2 in 1 Std. -
Sa, 17.02. 23:30 0.0 l/m2 in 1 Std. -
Sa, 17.02. 23:00 0.0 l/m2 in 1 Std. -
Sa, 17.02. 22:30 0.0 l/m2 in 1 Std. -
Ortszeit Stärke Spitze Richtung
km/h Bft. km/h Grad Sektor
So, 18.02. 1:00 17 3 30 60° NO
Sa, 17.02. 19:00 14 3 36 10° N
Sa, 17.02. 13:00 22 4 40 60° NO
Sa, 17.02. 7:00 22 4 40 80° O
Sa, 17.02. 1:00 20 4 26 80° O
Fr, 16.02. 19:00 11 2 22 60° NO
Fr, 16.02. 13:00 9 2 20 260° W
Fr, 16.02. 7:00 17 3 31 270° W
Ortszeit Stärke Spitze Richtung
km/h Bft. km/h Grad Sektor
So, 18.02. 1:30 15 3 20 50° NO
So, 18.02. 1:20 15 3 - 50° NO
So, 18.02. 1:10 14 3 - 50° NO
So, 18.02. 1:00 17 3 22 60° NO
So, 18.02. 0:40 15 3 - 50° NO
So, 18.02. 0:30 15 3 22 40° NO
So, 18.02. 0:00 18 3 25 30° NO
Sa, 17.02. 23:30 18 3 25 20° N
Sa, 17.02. 23:00 19 3 30 20° N
Sa, 17.02. 22:30 20 4 26 20° N
Ortszeit Untergrenze Bedeckung Gattung
total tief tief mittel hoch
So, 18.02. 1:00 510 m 7/8 7/8 - - -
Sa, 17.02. 19:00 510 m 8/8 8/8 - - -
Sa, 17.02. 13:00 <30 m 7/8 7/8 - - -
Sa, 17.02. 7:00 150 m 8/8 8/8 - - -
Sa, 17.02. 1:00 840 m 4/8 1/8 - - -
Fr, 16.02. 19:00 810 m 7/8 1/8 - - -
Fr, 16.02. 13:00 240 m 3/8 3/8 - - -
Fr, 16.02. 7:00 <30 m 8/8 8/8 - - -
Ortszeit Bedeckungsgrad in Achtel und Wolkenuntergrenze
So, 18.02. 1:30 7(510m)
So, 18.02. 1:20 7(510m)
So, 18.02. 1:10 7(510m)
So, 18.02. 1:00 7(510m)
So, 18.02. 0:40 8(510m)
So, 18.02. 0:30 8(510m)
So, 18.02. 0:00 7(510m)
Sa, 17.02. 23:30 1(510m)
Sa, 17.02. 23:00 2(540m)
Sa, 17.02. 22:30 7(2100m) 7(2400m)
Ortszeit Luftdruck NN (hPa) Tendenz (hPa in 3 Std.)
So, 18.02. 1:00 1027 + 1,2
Sa, 17.02. 19:00 1024 + 2,5
Sa, 17.02. 13:00 1021 + 0,1
Sa, 17.02. 7:00 1022 - 2,3
Sa, 17.02. 1:00 1027 - 0,8
Fr, 16.02. 19:00 1028 + 0,3
Fr, 16.02. 13:00 1028 + 1,2
Fr, 16.02. 7:00 1025 + 2,1
Ortszeit Luftdruck NN (hPa) Tendenz (hPa in 3 Std.)
So, 18.02. 1:30 1027 + 1,3
So, 18.02. 1:20 1027 keine Meldung
So, 18.02. 1:10 1027 keine Meldung
So, 18.02. 1:00 1027 + 1,2
So, 18.02. 0:40 1027 keine Meldung
So, 18.02. 0:30 1027 + 1,4
So, 18.02. 0:00 1027 + 1,3
Sa, 17.02. 23:30 1027 + 1,4
Sa, 17.02. 23:00 1026 + 1,5
Sa, 17.02. 22:30 1026 + 1,2
Ortszeit Schneehöhe (cm)
So, 18.02. 1:00 7
Sa, 17.02. 19:00 7
Sa, 17.02. 13:00 5
Sa, 17.02. 7:00 0
Sa, 17.02. 1:00 0
Fr, 16.02. 19:00 0
Fr, 16.02. 13:00 0
Fr, 16.02. 7:00 0
Ortszeit Schneehöhe (cm)
So, 18.02. 1:30 7
So, 18.02. 1:20 7
So, 18.02. 1:10 7
So, 18.02. 1:00 7
So, 18.02. 0:40 7
So, 18.02. 0:30 7
So, 18.02. 0:00 7
Sa, 17.02. 23:30 7
Sa, 17.02. 23:00 7
Sa, 17.02. 22:30 7
Link zu dieser Seite / Seite empfehlen

Das Wetter in ...